sensor_id;sensor_type;location;lat;lon;timestamp;temperature;humidity
17182;DHT22;8706;48.254;16.422;2023-10-09T00:02:13;22.40;57.80
17182;DHT22;8706;48.254;16.422;2023-10-09T00:04:41;22.30;57.70
17182;DHT22;8706;48.254;16.422;2023-10-09T00:07:11;22.40;57.70
17182;DHT22;8706;48.254;16.422;2023-10-09T00:09:38;22.30;57.80
17182;DHT22;8706;48.254;16.422;2023-10-09T00:12:14;22.30;57.70
17182;DHT22;8706;48.254;16.422;2023-10-09T00:14:41;22.30;57.70
17182;DHT22;8706;48.254;16.422;2023-10-09T00:17:15;22.30;57.70
17182;DHT22;8706;48.254;16.422;2023-10-09T00:19:45;22.30;57.80
17182;DHT22;8706;48.254;16.422;2023-10-09T00:22:15;22.30;57.80
17182;DHT22;8706;48.254;16.422;2023-10-09T00:24:57;22.30;57.80
17182;DHT22;8706;48.254;16.422;2023-10-09T00:27:38;22.30;57.90
17182;DHT22;8706;48.254;16.422;2023-10-09T00:30:09;22.30;57.80
17182;DHT22;8706;48.254;16.422;2023-10-09T00:32:38;22.30;57.70
17182;DHT22;8706;48.254;16.422;2023-10-09T00:35:10;22.30;57.80
17182;DHT22;8706;48.254;16.422;2023-10-09T00:37:51;22.30;57.80
17182;DHT22;8706;48.254;16.422;2023-10-09T00:40:30;22.30;57.80
17182;DHT22;8706;48.254;16.422;2023-10-09T00:43:00;22.30;57.80
17182;DHT22;8706;48.254;16.422;2023-10-09T00:45:31;22.30;57.90
17182;DHT22;8706;48.254;16.422;2023-10-09T00:48:06;22.30;57.80
17182;DHT22;8706;48.254;16.422;2023-10-09T00:50:34;22.30;57.80
17182;DHT22;8706;48.254;16.422;2023-10-09T00:53:12;22.30;57.80
17182;DHT22;8706;48.254;16.422;2023-10-09T00:55:44;22.30;57.80
17182;DHT22;8706;48.254;16.422;2023-10-09T00:58:21;22.30;57.80
17182;DHT22;8706;48.254;16.422;2023-10-09T01:00:56;22.30;57.90
17182;DHT22;8706;48.254;16.422;2023-10-09T01:03:26;22.30;57.80
17182;DHT22;8706;48.254;16.422;2023-10-09T01:05:58;22.30;57.90
17182;DHT22;8706;48.254;16.422;2023-10-09T01:08:41;22.30;57.90
17182;DHT22;8706;48.254;16.422;2023-10-09T01:11:14;22.30;57.80
17182;DHT22;8706;48.254;16.422;2023-10-09T01:13:48;22.20;57.80
17182;DHT22;8706;48.254;16.422;2023-10-09T01:16:38;22.30;57.80
17182;DHT22;8706;48.254;16.422;2023-10-09T01:19:08;22.20;57.80
17182;DHT22;8706;48.254;16.422;2023-10-09T01:21:46;22.20;57.90
17182;DHT22;8706;48.254;16.422;2023-10-09T01:24:14;22.20;57.90
17182;DHT22;8706;48.254;16.422;2023-10-09T01:26:42;22.20;57.90
17182;DHT22;8706;48.254;16.422;2023-10-09T01:29:14;22.20;57.90
17182;DHT22;8706;48.254;16.422;2023-10-09T01:31:42;22.20;57.90
17182;DHT22;8706;48.254;16.422;2023-10-09T01:34:18;22.20;57.90
17182;DHT22;8706;48.254;16.422;2023-10-09T01:36:50;22.30;57.90
17182;DHT22;8706;48.254;16.422;2023-10-09T01:39:21;22.30;57.80
17182;DHT22;8706;48.254;16.422;2023-10-09T01:41:52;22.30;57.80
17182;DHT22;8706;48.254;16.422;2023-10-09T01:44:24;22.20;57.80
17182;DHT22;8706;48.254;16.422;2023-10-09T01:46:53;22.30;57.90
17182;DHT22;8706;48.254;16.422;2023-10-09T01:49:22;22.20;57.80
17182;DHT22;8706;48.254;16.422;2023-10-09T01:51:55;22.30;57.90
17182;DHT22;8706;48.254;16.422;2023-10-09T01:54:26;22.20;57.80
17182;DHT22;8706;48.254;16.422;2023-10-09T01:57:03;22.30;57.90
17182;DHT22;8706;48.254;16.422;2023-10-09T01:59:35;22.20;57.90
17182;DHT22;8706;48.254;16.422;2023-10-09T02:02:04;22.30;57.90
17182;DHT22;8706;48.254;16.422;2023-10-09T02:04:38;22.20;57.90
17182;DHT22;8706;48.254;16.422;2023-10-09T02:07:06;22.20;57.90
17182;DHT22;8706;48.254;16.422;2023-10-09T02:09:35;22.20;57.90
17182;DHT22;8706;48.254;16.422;2023-10-09T02:12:10;22.30;57.90
17182;DHT22;8706;48.254;16.422;2023-10-09T02:14:37;22.20;57.80
17182;DHT22;8706;48.254;16.422;2023-10-09T02:17:07;22.20;57.80
17182;DHT22;8706;48.254;16.422;2023-10-09T02:19:35;22.20;57.80
17182;DHT22;8706;48.254;16.422;2023-10-09T02:22:03;22.20;57.80
17182;DHT22;8706;48.254;16.422;2023-10-09T02:24:40;22.20;57.90
17182;DHT22;8706;48.254;16.422;2023-10-09T02:27:17;22.20;57.90
17182;DHT22;8706;48.254;16.422;2023-10-09T02:30:03;22.20;57.90
17182;DHT22;8706;48.254;16.422;2023-10-09T02:32:41;22.20;57.90
17182;DHT22;8706;48.254;16.422;2023-10-09T02:35:10;22.20;57.90
17182;DHT22;8706;48.254;16.422;2023-10-09T02:37:53;22.20;57.90
17182;DHT22;8706;48.254;16.422;2023-10-09T02:40:21;22.20;57.90
17182;DHT22;8706;48.254;16.422;2023-10-09T02:42:51;22.20;57.90
17182;DHT22;8706;48.254;16.422;2023-10-09T02:45:18;22.20;57.90
17182;DHT22;8706;48.254;16.422;2023-10-09T02:47:45;22.20;57.90
17182;DHT22;8706;48.254;16.422;2023-10-09T02:50:15;22.20;58.00
17182;DHT22;8706;48.254;16.422;2023-10-09T02:52:47;22.20;57.90
17182;DHT22;8706;48.254;16.422;2023-10-09T02:55:19;22.20;57.90
17182;DHT22;8706;48.254;16.422;2023-10-09T02:57:52;22.20;57.90
17182;DHT22;8706;48.254;16.422;2023-10-09T03:00:30;22.20;57.90
17182;DHT22;8706;48.254;16.422;2023-10-09T03:02:58;22.20;57.90
17182;DHT22;8706;48.254;16.422;2023-10-09T03:05:25;22.20;57.90
17182;DHT22;8706;48.254;16.422;2023-10-09T03:07:54;22.10;57.90
17182;DHT22;8706;48.254;16.422;2023-10-09T03:10:22;22.20;57.90
17182;DHT22;8706;48.254;16.422;2023-10-09T03:12:52;22.20;57.90
17182;DHT22;8706;48.254;16.422;2023-10-09T03:15:19;22.20;58.00
17182;DHT22;8706;48.254;16.422;2023-10-09T03:17:47;22.20;57.90
17182;DHT22;8706;48.254;16.422;2023-10-09T03:20:14;22.20;58.00
17182;DHT22;8706;48.254;16.422;2023-10-09T03:22:44;22.20;58.00
17182;DHT22;8706;48.254;16.422;2023-10-09T03:25:11;22.20;58.00
17182;DHT22;8706;48.254;16.422;2023-10-09T03:27:40;22.20;58.00
17182;DHT22;8706;48.254;16.422;2023-10-09T03:30:13;22.20;58.00
17182;DHT22;8706;48.254;16.422;2023-10-09T03:32:47;22.20;57.90
17182;DHT22;8706;48.254;16.422;2023-10-09T03:35:17;22.20;58.00
17182;DHT22;8706;48.254;16.422;2023-10-09T03:37:51;22.20;58.00
17182;DHT22;8706;48.254;16.422;2023-10-09T03:40:18;22.20;57.90
17182;DHT22;8706;48.254;16.422;2023-10-09T03:42:46;22.20;58.00
17182;DHT22;8706;48.254;16.422;2023-10-09T03:45:15;22.20;57.90
17182;DHT22;8706;48.254;16.422;2023-10-09T03:47:52;22.20;57.90
17182;DHT22;8706;48.254;16.422;2023-10-09T03:50:23;22.20;57.90
17182;DHT22;8706;48.254;16.422;2023-10-09T03:53:04;22.20;57.90
17182;DHT22;8706;48.254;16.422;2023-10-09T03:55:34;22.20;58.00
17182;DHT22;8706;48.254;16.422;2023-10-09T03:58:01;22.20;57.90
17182;DHT22;8706;48.254;16.422;2023-10-09T04:00:29;22.20;58.00
17182;DHT22;8706;48.254;16.422;2023-10-09T04:02:58;22.10;57.90
17182;DHT22;8706;48.254;16.422;2023-10-09T04:05:26;22.20;57.90
17182;DHT22;8706;48.254;16.422;2023-10-09T04:07:54;22.20;57.90
17182;DHT22;8706;48.254;16.422;2023-10-09T04:10:24;22.20;58.00
17182;DHT22;8706;48.254;16.422;2023-10-09T04:13:08;22.10;57.90
17182;DHT22;8706;48.254;16.422;2023-10-09T04:15:39;22.20;58.00
17182;DHT22;8706;48.254;16.422;2023-10-09T04:18:08;22.20;58.00
17182;DHT22;8706;48.254;16.422;2023-10-09T04:20:40;22.20;57.90
17182;DHT22;8706;48.254;16.422;2023-10-09T04:23:44;22.10;57.90
17182;DHT22;8706;48.254;16.422;2023-10-09T04:26:35;22.10;57.90
17182;DHT22;8706;48.254;16.422;2023-10-09T04:29:03;22.10;58.00
17182;DHT22;8706;48.254;16.422;2023-10-09T04:31:32;22.10;58.00
17182;DHT22;8706;48.254;16.422;2023-10-09T04:34:03;22.10;57.90
17182;DHT22;8706;48.254;16.422;2023-10-09T04:36:44;22.10;57.90
17182;DHT22;8706;48.254;16.422;2023-10-09T04:39:15;22.10;58.00
17182;DHT22;8706;48.254;16.422;2023-10-09T04:42:01;22.10;58.00
17182;DHT22;8706;48.254;16.422;2023-10-09T04:44:52;22.10;58.00
17182;DHT22;8706;48.254;16.422;2023-10-09T04:47:38;22.10;58.00
17182;DHT22;8706;48.254;16.422;2023-10-09T04:50:15;22.00;58.00
17182;DHT22;8706;48.254;16.422;2023-10-09T04:53:02;22.00;58.10
17182;DHT22;8706;48.254;16.422;2023-10-09T04:55:47;22.00;58.10
17182;DHT22;8706;48.254;16.422;2023-10-09T04:58:21;22.00;58.10
17182;DHT22;8706;48.254;16.422;2023-10-09T05:00:49;22.00;58.10
17182;DHT22;8706;48.254;16.422;2023-10-09T05:03:31;22.00;58.20
17182;DHT22;8706;48.254;16.422;2023-10-09T05:06:11;22.00;58.20
17182;DHT22;8706;48.254;16.422;2023-10-09T05:08:58;22.00;58.10
17182;DHT22;8706;48.254;16.422;2023-10-09T05:11:34;22.00;58.10
17182;DHT22;8706;48.254;16.422;2023-10-09T05:14:19;22.00;58.20
17182;DHT22;8706;48.254;16.422;2023-10-09T05:16:53;22.00;58.10
17182;DHT22;8706;48.254;16.422;2023-10-09T05:19:28;22.00;58.10
17182;DHT22;8706;48.254;16.422;2023-10-09T05:22:14;22.00;58.20
17182;DHT22;8706;48.254;16.422;2023-10-09T05:24:56;22.00;58.10
17182;DHT22;8706;48.254;16.422;2023-10-09T05:27:23;22.00;58.20
17182;DHT22;8706;48.254;16.422;2023-10-09T05:30:10;21.90;58.20
17182;DHT22;8706;48.254;16.422;2023-10-09T05:32:52;22.00;58.20
17182;DHT22;8706;48.254;16.422;2023-10-09T05:35:25;22.00;58.20
17182;DHT22;8706;48.254;16.422;2023-10-09T05:38:07;22.00;58.10
17182;DHT22;8706;48.254;16.422;2023-10-09T05:40:48;22.00;58.20
17182;DHT22;8706;48.254;16.422;2023-10-09T05:43:19;22.00;58.10
17182;DHT22;8706;48.254;16.422;2023-10-09T05:46:01;22.00;58.10
17182;DHT22;8706;48.254;16.422;2023-10-09T05:48:41;22.00;58.10
17182;DHT22;8706;48.254;16.422;2023-10-09T05:51:21;22.00;58.10
17182;DHT22;8706;48.254;16.422;2023-10-09T05:54:05;22.10;58.10
17182;DHT22;8706;48.254;16.422;2023-10-09T05:56:50;22.10;58.00
17182;DHT22;8706;48.254;16.422;2023-10-09T05:59:34;22.10;58.00
17182;DHT22;8706;48.254;16.422;2023-10-09T06:02:18;22.10;58.00
17182;DHT22;8706;48.254;16.422;2023-10-09T06:05:03;22.10;57.90
17182;DHT22;8706;48.254;16.422;2023-10-09T06:07:46;22.10;57.90
17182;DHT22;8706;48.254;16.422;2023-10-09T06:10:30;22.20;57.70
17182;DHT22;8706;48.254;16.422;2023-10-09T06:13:05;22.10;57.70
17182;DHT22;8706;48.254;16.422;2023-10-09T06:15:37;22.20;57.60
17182;DHT22;8706;48.254;16.422;2023-10-09T06:18:35;22.20;57.60
17182;DHT22;8706;48.254;16.422;2023-10-09T06:21:07;22.30;57.50
17182;DHT22;8706;48.254;16.422;2023-10-09T06:23:37;22.30;57.50
17182;DHT22;8706;48.254;16.422;2023-10-09T06:26:23;22.40;57.40
17182;DHT22;8706;48.254;16.422;2023-10-09T06:28:51;22.50;57.30
17182;DHT22;8706;48.254;16.422;2023-10-09T06:31:39;22.50;57.10
17182;DHT22;8706;48.254;16.422;2023-10-09T06:34:27;22.50;57.10
17182;DHT22;8706;48.254;16.422;2023-10-09T06:36:59;22.60;57.00
17182;DHT22;8706;48.254;16.422;2023-10-09T06:39:34;22.60;56.90
17182;DHT22;8706;48.254;16.422;2023-10-09T06:42:18;22.70;56.80
17182;DHT22;8706;48.254;16.422;2023-10-09T06:45:00;22.70;56.80
17182;DHT22;8706;48.254;16.422;2023-10-09T06:47:42;22.70;56.70
17182;DHT22;8706;48.254;16.422;2023-10-09T06:50:19;22.80;56.60
17182;DHT22;8706;48.254;16.422;2023-10-09T06:52:52;22.80;56.60
17182;DHT22;8706;48.254;16.422;2023-10-09T06:55:46;22.80;56.70
17182;DHT22;8706;48.254;16.422;2023-10-09T06:58:15;22.80;56.50
17182;DHT22;8706;48.254;16.422;2023-10-09T07:00:48;22.90;56.40
17182;DHT22;8706;48.254;16.422;2023-10-09T07:03:45;23.00;56.40
17182;DHT22;8706;48.254;16.422;2023-10-09T07:06:26;23.10;56.20
17182;DHT22;8706;48.254;16.422;2023-10-09T07:09:06;23.10;56.30
17182;DHT22;8706;48.254;16.422;2023-10-09T07:11:46;23.10;56.00
17182;DHT22;8706;48.254;16.422;2023-10-09T07:14:35;23.20;56.00
17182;DHT22;8706;48.254;16.422;2023-10-09T07:17:28;23.20;56.00
17182;DHT22;8706;48.254;16.422;2023-10-09T07:20:09;23.30;55.80
17182;DHT22;8706;48.254;16.422;2023-10-09T07:22:39;23.30;55.80
17182;DHT22;8706;48.254;16.422;2023-10-09T07:25:19;23.80;55.20
17182;DHT22;8706;48.254;16.422;2023-10-09T07:27:59;23.80;55.00
17182;DHT22;8706;48.254;16.422;2023-10-09T07:30:28;24.30;54.30
17182;DHT22;8706;48.254;16.422;2023-10-09T07:33:05;24.60;53.80
17182;DHT22;8706;48.254;16.422;2023-10-09T07:35:43;24.20;54.00
17182;DHT22;8706;48.254;16.422;2023-10-09T07:38:24;24.00;54.60
17182;DHT22;8706;48.254;16.422;2023-10-09T07:40:55;23.90;54.70
17182;DHT22;8706;48.254;16.422;2023-10-09T07:43:28;23.90;54.60
17182;DHT22;8706;48.254;16.422;2023-10-09T07:46:02;23.90;54.80
17182;DHT22;8706;48.254;16.422;2023-10-09T07:48:43;23.70;54.90
17182;DHT22;8706;48.254;16.422;2023-10-09T07:51:18;24.20;54.30
17182;DHT22;8706;48.254;16.422;2023-10-09T07:53:49;24.20;53.90
17182;DHT22;8706;48.254;16.422;2023-10-09T07:56:23;24.40;53.90
17182;DHT22;8706;48.254;16.422;2023-10-09T07:58:51;24.90;53.40
17182;DHT22;8706;48.254;16.422;2023-10-09T08:01:18;25.00;52.90
17182;DHT22;8706;48.254;16.422;2023-10-09T08:04:00;25.10;52.60
17182;DHT22;8706;48.254;16.422;2023-10-09T08:06:36;25.40;52.20
17182;DHT22;8706;48.254;16.422;2023-10-09T08:09:09;25.70;52.30
17182;DHT22;8706;48.254;16.422;2023-10-09T08:12:04;25.80;51.70
17182;DHT22;8706;48.254;16.422;2023-10-09T08:14:50;25.90;51.60
17182;DHT22;8706;48.254;16.422;2023-10-09T08:17:24;26.10;51.70
17182;DHT22;8706;48.254;16.422;2023-10-09T08:19:53;26.20;51.50
17182;DHT22;8706;48.254;16.422;2023-10-09T08:22:24;26.40;51.20
17182;DHT22;8706;48.254;16.422;2023-10-09T08:25:09;26.30;50.80
17182;DHT22;8706;48.254;16.422;2023-10-09T08:27:52;25.70;51.60
17182;DHT22;8706;48.254;16.422;2023-10-09T08:30:24;24.30;53.40
17182;DHT22;8706;48.254;16.422;2023-10-09T08:33:28;24.00;54.40
17182;DHT22;8706;48.254;16.422;2023-10-09T08:36:07;24.90;53.50
17182;DHT22;8706;48.254;16.422;2023-10-09T08:38:35;25.40;52.80
17182;DHT22;8706;48.254;16.422;2023-10-09T08:41:09;24.20;53.90
17182;DHT22;8706;48.254;16.422;2023-10-09T08:43:48;23.80;55.10
17182;DHT22;8706;48.254;16.422;2023-10-09T08:46:23;23.80;55.60
17182;DHT22;8706;48.254;16.422;2023-10-09T08:48:52;24.20;55.40
17182;DHT22;8706;48.254;16.422;2023-10-09T08:51:21;23.80;55.10
17182;DHT22;8706;48.254;16.422;2023-10-09T08:53:48;23.60;55.50
17182;DHT22;8706;48.254;16.422;2023-10-09T08:56:17;24.10;55.20
17182;DHT22;8706;48.254;16.422;2023-10-09T08:58:51;24.50;54.70
17182;DHT22;8706;48.254;16.422;2023-10-09T09:01:21;24.30;54.50
17182;DHT22;8706;48.254;16.422;2023-10-09T09:03:51;23.90;55.20
17182;DHT22;8706;48.254;16.422;2023-10-09T09:06:21;23.90;54.90
17182;DHT22;8706;48.254;16.422;2023-10-09T09:08:50;23.80;55.20
17182;DHT22;8706;48.254;16.422;2023-10-09T09:11:20;23.50;55.80
17182;DHT22;8706;48.254;16.422;2023-10-09T09:14:01;23.80;55.40
17182;DHT22;8706;48.254;16.422;2023-10-09T09:16:32;23.80;55.50
17182;DHT22;8706;48.254;16.422;2023-10-09T09:19:02;23.70;55.30
17182;DHT22;8706;48.254;16.422;2023-10-09T09:21:31;23.50;55.90
17182;DHT22;8706;48.254;16.422;2023-10-09T09:24:04;23.40;56.00
17182;DHT22;8706;48.254;16.422;2023-10-09T09:26:41;23.30;56.20
17182;DHT22;8706;48.254;16.422;2023-10-09T09:29:12;23.60;56.00
17182;DHT22;8706;48.254;16.422;2023-10-09T09:31:52;23.80;55.70
17182;DHT22;8706;48.254;16.422;2023-10-09T09:34:19;23.70;55.90
17182;DHT22;8706;48.254;16.422;2023-10-09T09:36:53;23.60;55.70
17182;DHT22;8706;48.254;16.422;2023-10-09T09:39:24;23.20;56.50
17182;DHT22;8706;48.254;16.422;2023-10-09T09:41:55;23.10;57.10
17182;DHT22;8706;48.254;16.422;2023-10-09T09:44:23;23.00;57.20
17182;DHT22;8706;48.254;16.422;2023-10-09T09:46:59;23.00;57.20
17182;DHT22;8706;48.254;16.422;2023-10-09T09:49:27;23.30;57.10
17182;DHT22;8706;48.254;16.422;2023-10-09T09:51:58;23.50;56.20
17182;DHT22;8706;48.254;16.422;2023-10-09T09:54:27;23.70;56.60
17182;DHT22;8706;48.254;16.422;2023-10-09T09:57:00;24.10;55.90
17182;DHT22;8706;48.254;16.422;2023-10-09T09:59:38;23.90;56.10
17182;DHT22;8706;48.254;16.422;2023-10-09T10:02:21;23.90;56.10
17182;DHT22;8706;48.254;16.422;2023-10-09T10:04:54;24.20;55.70
17182;DHT22;8706;48.254;16.422;2023-10-09T10:07:23;24.10;55.70
17182;DHT22;8706;48.254;16.422;2023-10-09T10:09:51;23.80;56.20
17182;DHT22;8706;48.254;16.422;2023-10-09T10:12:51;24.10;55.80
17182;DHT22;8706;48.254;16.422;2023-10-09T10:15:58;24.10;55.80
17182;DHT22;8706;48.254;16.422;2023-10-09T10:18:33;24.00;55.80
17182;DHT22;8706;48.254;16.422;2023-10-09T10:21:10;23.90;56.10
17182;DHT22;8706;48.254;16.422;2023-10-09T10:23:42;23.60;56.80
17182;DHT22;8706;48.254;16.422;2023-10-09T10:26:22;23.60;56.70
17182;DHT22;8706;48.254;16.422;2023-10-09T10:29:14;23.60;56.70
17182;DHT22;8706;48.254;16.422;2023-10-09T10:31:55;23.80;56.90
17182;DHT22;8706;48.254;16.422;2023-10-09T10:34:25;23.90;56.80
17182;DHT22;8706;48.254;16.422;2023-10-09T10:36:52;24.20;56.20
17182;DHT22;8706;48.254;16.422;2023-10-09T10:39:25;24.60;55.50
17182;DHT22;8706;48.254;16.422;2023-10-09T10:42:06;24.50;55.80
17182;DHT22;8706;48.254;16.422;2023-10-09T10:44:35;24.00;56.60
17182;DHT22;8706;48.254;16.422;2023-10-09T10:47:08;23.90;56.80
17182;DHT22;8706;48.254;16.422;2023-10-09T10:49:49;23.80;57.40
17182;DHT22;8706;48.254;16.422;2023-10-09T10:52:24;23.80;57.80
17182;DHT22;8706;48.254;16.422;2023-10-09T10:55:11;23.70;58.20
17182;DHT22;8706;48.254;16.422;2023-10-09T10:58:15;23.60;58.70
17182;DHT22;8706;48.254;16.422;2023-10-09T11:00:52;23.50;58.70
17182;DHT22;8706;48.254;16.422;2023-10-09T11:03:37;23.10;59.50
17182;DHT22;8706;48.254;16.422;2023-10-09T11:06:29;23.20;60.50
17182;DHT22;8706;48.254;16.422;2023-10-09T11:09:03;23.10;60.60
17182;DHT22;8706;48.254;16.422;2023-10-09T11:11:47;23.10;62.20
17182;DHT22;8706;48.254;16.422;2023-10-09T11:14:16;22.80;61.70
17182;DHT22;8706;48.254;16.422;2023-10-09T11:16:49;22.80;61.60
17182;DHT22;8706;48.254;16.422;2023-10-09T11:19:20;22.80;61.80
17182;DHT22;8706;48.254;16.422;2023-10-09T11:21:56;22.90;62.20
17182;DHT22;8706;48.254;16.422;2023-10-09T11:24:55;22.80;61.40
17182;DHT22;8706;48.254;16.422;2023-10-09T11:27:40;23.40;59.70
17182;DHT22;8706;48.254;16.422;2023-10-09T11:30:15;23.70;59.20
17182;DHT22;8706;48.254;16.422;2023-10-09T11:33:06;23.80;59.00
17182;DHT22;8706;48.254;16.422;2023-10-09T11:35:40;23.90;59.00
17182;DHT22;8706;48.254;16.422;2023-10-09T11:38:09;23.90;59.00
17182;DHT22;8706;48.254;16.422;2023-10-09T11:40:48;23.90;59.00
17182;DHT22;8706;48.254;16.422;2023-10-09T11:43:48;23.90;58.90
17182;DHT22;8706;48.254;16.422;2023-10-09T11:46:17;23.90;59.00
17182;DHT22;8706;48.254;16.422;2023-10-09T11:49:06;23.90;59.00
17182;DHT22;8706;48.254;16.422;2023-10-09T11:52:07;23.90;59.00
17182;DHT22;8706;48.254;16.422;2023-10-09T11:54:50;23.90;59.00
17182;DHT22;8706;48.254;16.422;2023-10-09T11:57:23;23.90;59.10
17182;DHT22;8706;48.254;16.422;2023-10-09T11:59:56;23.90;59.10
17182;DHT22;8706;48.254;16.422;2023-10-09T12:02:24;23.90;59.20
17182;DHT22;8706;48.254;16.422;2023-10-09T12:04:50;23.90;59.20
17182;DHT22;8706;48.254;16.422;2023-10-09T12:07:21;23.90;59.20
17182;DHT22;8706;48.254;16.422;2023-10-09T12:09:48;23.90;59.30
17182;DHT22;8706;48.254;16.422;2023-10-09T12:12:17;23.90;59.30
17182;DHT22;8706;48.254;16.422;2023-10-09T12:14:53;23.90;59.30
17182;DHT22;8706;48.254;16.422;2023-10-09T12:17:19;24.00;59.30
17182;DHT22;8706;48.254;16.422;2023-10-09T12:19:50;24.00;59.10
17182;DHT22;8706;48.254;16.422;2023-10-09T12:22:17;24.10;59.10
17182;DHT22;8706;48.254;16.422;2023-10-09T12:24:47;24.10;59.00
17182;DHT22;8706;48.254;16.422;2023-10-09T12:27:14;24.10;59.00
17182;DHT22;8706;48.254;16.422;2023-10-09T12:29:42;24.10;59.00
17182;DHT22;8706;48.254;16.422;2023-10-09T12:32:12;24.10;59.00
17182;DHT22;8706;48.254;16.422;2023-10-09T12:34:45;24.10;59.10
17182;DHT22;8706;48.254;16.422;2023-10-09T12:37:15;24.10;59.10
17182;DHT22;8706;48.254;16.422;2023-10-09T12:39:46;24.00;59.10
17182;DHT22;8706;48.254;16.422;2023-10-09T12:42:13;24.00;59.20
17182;DHT22;8706;48.254;16.422;2023-10-09T12:44:42;24.00;59.30
17182;DHT22;8706;48.254;16.422;2023-10-09T12:47:10;23.90;59.40
17182;DHT22;8706;48.254;16.422;2023-10-09T12:49:38;23.90;59.40
17182;DHT22;8706;48.254;16.422;2023-10-09T12:52:07;23.90;59.50
17182;DHT22;8706;48.254;16.422;2023-10-09T12:54:41;23.90;59.50
17182;DHT22;8706;48.254;16.422;2023-10-09T12:57:09;23.90;59.60
17182;DHT22;8706;48.254;16.422;2023-10-09T12:59:39;23.80;59.60
17182;DHT22;8706;48.254;16.422;2023-10-09T13:02:11;23.80;59.50
17182;DHT22;8706;48.254;16.422;2023-10-09T13:04:40;23.80;59.60
17182;DHT22;8706;48.254;16.422;2023-10-09T13:07:08;23.80;59.80
17182;DHT22;8706;48.254;16.422;2023-10-09T13:09:34;23.80;59.90
17182;DHT22;8706;48.254;16.422;2023-10-09T13:12:08;23.70;60.00
17182;DHT22;8706;48.254;16.422;2023-10-09T13:14:35;23.70;60.00
17182;DHT22;8706;48.254;16.422;2023-10-09T13:17:02;23.70;60.00
17182;DHT22;8706;48.254;16.422;2023-10-09T13:19:35;23.70;60.10
17182;DHT22;8706;48.254;16.422;2023-10-09T13:22:03;23.70;60.20
17182;DHT22;8706;48.254;16.422;2023-10-09T13:24:38;23.70;60.30
17182;DHT22;8706;48.254;16.422;2023-10-09T13:27:05;23.70;60.30
17182;DHT22;8706;48.254;16.422;2023-10-09T13:29:35;23.60;60.40
17182;DHT22;8706;48.254;16.422;2023-10-09T13:32:05;23.60;60.40
17182;DHT22;8706;48.254;16.422;2023-10-09T13:34:39;23.60;60.50
17182;DHT22;8706;48.254;16.422;2023-10-09T13:37:11;23.60;60.50
17182;DHT22;8706;48.254;16.422;2023-10-09T13:39:39;23.60;60.60
17182;DHT22;8706;48.254;16.422;2023-10-09T13:42:17;23.60;60.60
17182;DHT22;8706;48.254;16.422;2023-10-09T13:44:44;23.60;60.70
17182;DHT22;8706;48.254;16.422;2023-10-09T13:47:14;23.60;60.80
17182;DHT22;8706;48.254;16.422;2023-10-09T13:49:46;23.60;60.90
17182;DHT22;8706;48.254;16.422;2023-10-09T13:52:17;23.50;60.90
17182;DHT22;8706;48.254;16.422;2023-10-09T13:54:44;23.50;60.90
17182;DHT22;8706;48.254;16.422;2023-10-09T13:57:15;23.60;61.00
17182;DHT22;8706;48.254;16.422;2023-10-09T13:59:42;23.50;61.00
17182;DHT22;8706;48.254;16.422;2023-10-09T14:02:15;23.60;61.00
17182;DHT22;8706;48.254;16.422;2023-10-09T14:04:44;23.60;61.10
17182;DHT22;8706;48.254;16.422;2023-10-09T14:07:11;23.50;61.20
17182;DHT22;8706;48.254;16.422;2023-10-09T14:09:44;23.50;61.20
17182;DHT22;8706;48.254;16.422;2023-10-09T14:12:21;23.50;61.30
17182;DHT22;8706;48.254;16.422;2023-10-09T14:14:51;23.50;61.40
17182;DHT22;8706;48.254;16.422;2023-10-09T14:17:20;23.50;61.40
17182;DHT22;8706;48.254;16.422;2023-10-09T14:19:51;23.50;61.40
17182;DHT22;8706;48.254;16.422;2023-10-09T14:22:19;23.50;61.40
17182;DHT22;8706;48.254;16.422;2023-10-09T14:24:48;23.50;61.40
17182;DHT22;8706;48.254;16.422;2023-10-09T14:27:21;23.50;61.40
17182;DHT22;8706;48.254;16.422;2023-10-09T14:29:52;23.50;61.60
17182;DHT22;8706;48.254;16.422;2023-10-09T14:32:21;23.50;61.70
17182;DHT22;8706;48.254;16.422;2023-10-09T14:34:54;23.50;61.80
17182;DHT22;8706;48.254;16.422;2023-10-09T14:37:26;23.40;61.80
17182;DHT22;8706;48.254;16.422;2023-10-09T14:39:55;23.40;61.80
17182;DHT22;8706;48.254;16.422;2023-10-09T14:42:24;23.40;61.90
17182;DHT22;8706;48.254;16.422;2023-10-09T14:44:53;23.40;61.90
17182;DHT22;8706;48.254;16.422;2023-10-09T14:47:21;23.40;62.00
17182;DHT22;8706;48.254;16.422;2023-10-09T14:49:48;23.40;62.00
17182;DHT22;8706;48.254;16.422;2023-10-09T14:52:15;23.40;62.10
17182;DHT22;8706;48.254;16.422;2023-10-09T14:54:44;23.40;62.10
17182;DHT22;8706;48.254;16.422;2023-10-09T14:57:12;23.40;62.20
17182;DHT22;8706;48.254;16.422;2023-10-09T14:59:39;23.40;62.20
17182;DHT22;8706;48.254;16.422;2023-10-09T15:02:08;23.40;62.30
17182;DHT22;8706;48.254;16.422;2023-10-09T15:04:35;23.40;62.40
17182;DHT22;8706;48.254;16.422;2023-10-09T15:07:03;23.40;62.30
17182;DHT22;8706;48.254;16.422;2023-10-09T15:09:32;23.40;62.50
17182;DHT22;8706;48.254;16.422;2023-10-09T15:12:00;23.30;62.50
17182;DHT22;8706;48.254;16.422;2023-10-09T15:14:29;23.30;62.70
17182;DHT22;8706;48.254;16.422;2023-10-09T15:16:55;23.40;62.80
17182;DHT22;8706;48.254;16.422;2023-10-09T15:19:22;23.30;62.80
17182;DHT22;8706;48.254;16.422;2023-10-09T15:21:55;23.40;62.80
17182;DHT22;8706;48.254;16.422;2023-10-09T15:24:21;23.30;62.80
17182;DHT22;8706;48.254;16.422;2023-10-09T15:26:51;23.30;62.80
17182;DHT22;8706;48.254;16.422;2023-10-09T15:29:19;23.30;62.80
17182;DHT22;8706;48.254;16.422;2023-10-09T15:31:50;23.30;62.80
17182;DHT22;8706;48.254;16.422;2023-10-09T15:34:17;23.30;62.90
17182;DHT22;8706;48.254;16.422;2023-10-09T15:36:44;23.30;63.00
17182;DHT22;8706;48.254;16.422;2023-10-09T15:39:12;23.30;62.90
17182;DHT22;8706;48.254;16.422;2023-10-09T15:41:39;23.20;62.90
17182;DHT22;8706;48.254;16.422;2023-10-09T15:44:06;23.20;62.80
17182;DHT22;8706;48.254;16.422;2023-10-09T15:46:33;23.20;62.80
17182;DHT22;8706;48.254;16.422;2023-10-09T15:49:01;23.20;62.80
17182;DHT22;8706;48.254;16.422;2023-10-09T15:51:28;23.20;62.80
17182;DHT22;8706;48.254;16.422;2023-10-09T15:53:56;23.20;62.90
17182;DHT22;8706;48.254;16.422;2023-10-09T15:56:23;23.10;62.80
17182;DHT22;8706;48.254;16.422;2023-10-09T15:58:52;23.10;62.80
17182;DHT22;8706;48.254;16.422;2023-10-09T16:01:19;23.10;62.70
17182;DHT22;8706;48.254;16.422;2023-10-09T16:03:48;23.10;62.70
17182;DHT22;8706;48.254;16.422;2023-10-09T16:06:17;23.10;62.60
17182;DHT22;8706;48.254;16.422;2023-10-09T16:08:46;23.10;62.80
17182;DHT22;8706;48.254;16.422;2023-10-09T16:11:16;23.10;62.80
17182;DHT22;8706;48.254;16.422;2023-10-09T16:13:44;23.10;62.60